createdAt,value
2023-04-05T00:00:10.613Z,-0.66
2023-04-05T00:05:12.884Z,-0.65
2023-04-05T00:10:14.551Z,-0.68
2023-04-05T00:15:16.766Z,-0.70
2023-04-05T00:20:18.700Z,-0.65
2023-04-05T00:25:21.870Z,-0.63
2023-04-05T00:30:23.919Z,-0.63
2023-04-05T00:35:28.037Z,-0.65
2023-04-05T00:40:29.728Z,-0.70
2023-04-05T00:45:31.877Z,-0.70
2023-04-05T00:50:33.821Z,-0.78
2023-04-05T00:55:36.400Z,-0.69
2023-04-05T01:00:39.808Z,-0.73
2023-04-05T01:05:51.669Z,-0.70
2023-04-05T01:10:57.287Z,-0.80
2023-04-05T01:15:59.272Z,-0.77
2023-04-05T01:21:20.933Z,-0.75
2023-04-05T01:26:44.114Z,-0.80
2023-04-05T01:31:56.838Z,-0.90
2023-04-05T01:37:06.190Z,-0.95
2023-04-05T01:42:08.546Z,-0.97
2023-04-05T01:47:10.231Z,-0.97
2023-04-05T01:52:11.973Z,-1.04
2023-04-05T01:57:13.575Z,-1.08
2023-04-05T02:02:15.648Z,-1.06
2023-04-05T02:07:17.253Z,-1.22
2023-04-05T02:12:18.862Z,-1.25
2023-04-05T02:17:21.900Z,-1.29
2023-04-05T02:22:23.526Z,-1.30
2023-04-05T02:27:25.397Z,-1.37
2023-04-05T02:32:28.714Z,-1.39
2023-04-05T02:37:30.926Z,-1.45
2023-04-05T02:42:32.509Z,-1.42
2023-04-05T02:47:34.681Z,-1.44
2023-04-05T02:52:37.676Z,-1.47
2023-04-05T02:57:41.168Z,-1.55
2023-04-05T03:02:56.775Z,-1.54
2023-04-05T03:07:59.564Z,-1.60
2023-04-05T03:13:05.033Z,-1.58
2023-04-05T03:18:06.751Z,-1.62
2023-04-05T03:23:09.291Z,-1.60
2023-04-05T03:28:12.398Z,-1.57
2023-04-05T03:33:19.473Z,-1.64
2023-04-05T03:38:24.478Z,-1.76
2023-04-05T03:43:43.051Z,-1.72
2023-04-05T03:48:44.743Z,-1.71
2023-04-05T03:53:46.356Z,-1.72
2023-04-05T03:58:48.645Z,-1.70
2023-04-05T04:03:52.912Z,-1.73
2023-04-05T04:08:54.647Z,-1.76
2023-04-05T04:13:56.893Z,-1.84
2023-04-05T04:19:09.099Z,-1.75
2023-04-05T04:24:40.735Z,-1.81
2023-04-05T04:30:04.103Z,-1.81
2023-04-05T04:35:41.112Z,-1.75
2023-04-05T04:41:06.733Z,-1.63
2023-04-05T04:46:19.135Z,-1.72
2023-04-05T04:51:38.290Z,-1.59
2023-04-05T04:56:39.872Z,-1.58
2023-04-05T05:01:42.289Z,-1.57
2023-04-05T05:06:45.380Z,-1.45
2023-04-05T05:11:47.167Z,-1.38
2023-04-05T05:16:48.807Z,-1.10
2023-04-05T05:21:53.950Z,-0.68
2023-04-05T05:26:55.712Z,-0.53
2023-04-05T05:31:57.371Z,-0.39
2023-04-05T05:36:58.994Z,-0.20
2023-04-05T05:42:00.704Z,-0.01
2023-04-05T05:47:03.027Z,0.17
2023-04-05T05:52:05.055Z,0.38
2023-04-05T05:57:06.676Z,0.59
2023-04-05T06:02:08.485Z,0.89
2023-04-05T06:07:11.166Z,1.05
2023-04-05T06:12:12.950Z,1.38
2023-04-05T06:17:14.592Z,1.13
2023-04-05T06:22:16.542Z,1.45
2023-04-05T06:27:18.375Z,1.71
2023-04-05T06:32:20.733Z,1.71
2023-04-05T06:37:22.352Z,2.13
2023-04-05T06:42:25.392Z,2.36
2023-04-05T06:47:35.754Z,2.55
2023-04-05T06:52:38.027Z,2.42
2023-04-05T06:57:39.675Z,2.49
2023-04-05T07:02:41.346Z,2.50
2023-04-05T07:07:44.486Z,2.53
2023-04-05T07:12:46.127Z,2.64
2023-04-05T07:17:47.845Z,3.32
2023-04-05T07:22:49.539Z,3.67
2023-04-05T07:27:52.748Z,3.74
2023-04-05T07:32:55.366Z,3.69
2023-04-05T07:37:57.312Z,3.92
2023-04-05T07:42:59.034Z,4.25
2023-04-05T07:48:00.701Z,4.33
2023-04-05T07:53:02.563Z,4.29
2023-04-05T07:58:04.163Z,4.85
2023-04-05T08:03:06.150Z,4.66
2023-04-05T08:08:11.082Z,4.34
2023-04-05T08:13:12.795Z,4.31
2023-04-05T08:18:14.499Z,4.73
2023-04-05T08:23:16.090Z,4.90
2023-04-05T08:28:17.892Z,5.20
2023-04-05T08:33:19.750Z,5.47
2023-04-05T08:38:21.637Z,5.67
2023-04-05T08:43:28.412Z,5.69
2023-04-05T08:48:35.014Z,6.06
2023-04-05T08:53:36.755Z,6.39
2023-04-05T08:58:39.572Z,6.60
2023-04-05T09:03:42.986Z,6.81
2023-04-05T09:08:44.911Z,6.41
2023-04-05T09:13:46.551Z,6.53
2023-04-05T09:18:49.155Z,6.44
2023-04-05T09:23:55.669Z,7.13
2023-04-05T09:28:57.333Z,7.69
2023-04-05T09:34:03.728Z,8.05
2023-04-05T09:39:09.977Z,7.81
2023-04-05T09:44:11.616Z,8.18
2023-04-05T09:49:14.423Z,7.88
2023-04-05T09:54:16.440Z,7.81
2023-04-05T09:59:18.250Z,7.99
2023-04-05T10:04:20.045Z,7.62
2023-04-05T10:09:22.109Z,7.38
2023-04-05T10:14:23.984Z,8.33
2023-04-05T10:20:01.053Z,7.96
2023-04-05T10:25:13.688Z,8.48
2023-04-05T10:30:16.576Z,8.12
2023-04-05T10:35:41.532Z,8.40
2023-04-05T10:40:48.525Z,7.98
2023-04-05T10:45:53.449Z,9.23
2023-04-05T10:50:56.587Z,8.76
2023-04-05T10:55:59.166Z,8.79
2023-04-05T11:01:01.953Z,9.29
2023-04-05T11:06:19.103Z,9.65
2023-04-05T11:11:22.864Z,9.00
2023-04-05T11:16:38.558Z,9.85
2023-04-05T11:21:40.471Z,9.23
2023-04-05T11:26:48.192Z,8.97
2023-04-05T11:32:06.198Z,9.51
2023-04-05T11:37:07.993Z,10.02
2023-04-05T11:42:16.031Z,10.17
2023-04-05T11:47:21.639Z,10.14
2023-04-05T11:52:23.478Z,9.62
2023-04-05T11:57:25.313Z,9.60
2023-04-05T12:02:27.046Z,9.10
2023-04-05T12:07:32.065Z,9.15
2023-04-05T12:12:41.971Z,9.84
2023-04-05T12:17:51.948Z,10.22
2023-04-05T12:22:55.658Z,10.59
2023-04-05T12:27:57.350Z,9.85
2023-04-05T12:32:59.217Z,9.77
2023-04-05T12:38:03.147Z,10.54
2023-04-05T12:43:09.254Z,10.49
2023-04-05T12:48:15.813Z,11.22
2023-04-05T12:53:20.500Z,9.83
2023-04-05T12:58:37.922Z,9.72
2023-04-05T13:03:44.034Z,9.90
2023-04-05T13:08:45.941Z,9.77
2023-04-05T13:13:47.562Z,9.84
2023-04-05T13:18:49.203Z,8.60
2023-04-05T13:23:50.887Z,9.69
2023-04-05T13:28:52.505Z,9.91
2023-04-05T13:33:54.302Z,9.96
2023-04-05T13:38:56.259Z,10.10
2023-04-05T13:43:59.761Z,10.77
2023-04-05T13:49:02.822Z,9.78
2023-04-05T13:54:04.545Z,9.24
2023-04-05T13:59:06.509Z,9.06
2023-04-05T14:04:08.284Z,9.98
2023-04-05T14:09:10.019Z,10.13
2023-04-05T14:14:11.953Z,10.12
2023-04-05T14:19:13.706Z,11.06
2023-04-05T14:24:15.453Z,10.68
2023-04-05T14:29:17.984Z,10.05
2023-04-05T14:34:19.816Z,9.38
2023-04-05T14:39:21.781Z,8.77
2023-04-05T14:44:24.415Z,9.62
2023-04-05T14:49:26.352Z,10.30
2023-04-05T14:54:28.385Z,10.10
2023-04-05T14:59:31.010Z,10.15
2023-04-05T15:04:32.949Z,10.44
2023-04-05T15:09:34.716Z,8.69
2023-04-05T15:14:36.690Z,8.77
2023-04-05T15:19:38.372Z,8.69
2023-04-05T15:24:41.770Z,8.95
2023-04-05T15:29:43.661Z,8.87
2023-04-05T15:34:46.131Z,8.41
2023-04-05T15:39:48.014Z,8.15
2023-04-05T15:44:50.271Z,8.11
2023-04-05T15:49:52.164Z,8.04
2023-04-05T15:54:53.938Z,7.84
2023-04-05T15:59:55.674Z,7.84
2023-04-05T16:04:57.466Z,7.61
2023-04-05T16:09:59.216Z,7.44
2023-04-05T16:15:00.943Z,7.53
2023-04-05T16:20:02.757Z,7.52
2023-04-05T16:25:04.968Z,7.41
2023-04-05T16:30:07.718Z,7.27
2023-04-05T16:35:10.139Z,7.43
2023-04-05T16:40:12.766Z,7.24
2023-04-05T16:45:14.481Z,7.14
2023-04-05T16:50:16.224Z,7.04
2023-04-05T16:55:17.888Z,7.12
2023-04-05T17:00:20.219Z,7.07
2023-04-05T17:05:21.914Z,6.91
2023-04-05T17:10:23.849Z,6.94
2023-04-05T17:15:26.320Z,6.78
2023-04-05T17:20:28.157Z,6.85
2023-04-05T17:25:31.324Z,6.71
2023-04-05T17:30:33.420Z,6.69
2023-04-05T17:35:35.509Z,6.64
2023-04-05T17:40:37.308Z,6.58
2023-04-05T17:45:39.381Z,6.53
2023-04-05T17:50:41.184Z,6.47
2023-04-05T17:55:43.443Z,6.48
2023-04-05T18:00:45.170Z,6.45
2023-04-05T18:05:54.268Z,6.48
2023-04-05T18:10:57.949Z,6.48
2023-04-05T18:16:00.387Z,6.51
2023-04-05T18:21:02.234Z,6.53
2023-04-05T18:26:07.978Z,6.45
2023-04-05T18:31:10.223Z,6.33
2023-04-05T18:36:12.898Z,6.19
2023-04-05T18:41:15.242Z,6.11
2023-04-05T18:46:18.630Z,5.88
2023-04-05T18:51:24.911Z,5.77
2023-04-05T18:56:29.938Z,5.64
2023-04-05T19:01:31.946Z,5.52
2023-04-05T19:06:34.755Z,5.50
2023-04-05T19:11:36.429Z,5.28
2023-04-05T19:16:38.237Z,5.30
2023-04-05T19:21:39.992Z,5.26
2023-04-05T19:26:43.031Z,5.16
2023-04-05T19:31:44.955Z,5.17
2023-04-05T19:36:46.692Z,5.25
2023-04-05T19:41:48.402Z,5.20
2023-04-05T19:46:50.344Z,5.19
2023-04-05T19:51:56.140Z,5.18
2023-04-05T19:57:01.190Z,4.89
2023-04-05T20:02:19.072Z,4.87
2023-04-05T20:07:21.166Z,4.71
2023-04-05T20:12:23.408Z,4.61
2023-04-05T20:22:32.699Z,4.40
2023-04-05T20:27:34.377Z,4.31
2023-04-05T20:32:36.118Z,4.20
2023-04-05T20:37:37.815Z,3.97
2023-04-05T20:42:39.676Z,3.77
2023-04-05T20:47:41.602Z,3.78
2023-04-05T20:52:43.344Z,3.75
2023-04-05T20:57:45.003Z,3.60
2023-04-05T21:02:47.201Z,3.53
2023-04-05T21:07:49.209Z,3.38
2023-04-05T21:12:52.277Z,3.28
2023-04-05T21:17:56.037Z,3.21
2023-04-05T21:22:59.223Z,3.16
2023-04-05T21:28:01.351Z,3.07
2023-04-05T21:33:03.052Z,2.91
2023-04-05T21:38:05.521Z,2.86
2023-04-05T21:43:07.303Z,2.69
2023-04-05T21:48:09.047Z,2.62
2023-04-05T21:53:10.923Z,2.56
2023-04-05T21:58:12.913Z,2.49
2023-04-05T22:03:14.659Z,2.40
2023-04-05T22:08:17.150Z,2.20
2023-04-05T22:13:18.987Z,2.18
2023-04-05T22:18:20.659Z,2.09
2023-04-05T22:23:22.379Z,1.98
2023-04-05T22:28:24.163Z,1.97
2023-04-05T22:33:25.955Z,1.87
2023-04-05T22:38:29.333Z,1.83
2023-04-05T22:43:31.168Z,1.79
2023-04-05T22:48:32.961Z,1.68
2023-04-05T22:53:34.626Z,1.70
2023-04-05T22:58:36.736Z,1.62
2023-04-05T23:03:38.481Z,1.62
2023-04-05T23:08:40.266Z,1.57
2023-04-05T23:13:41.944Z,1.54
2023-04-05T23:18:43.742Z,1.56
2023-04-05T23:23:45.404Z,1.55
2023-04-05T23:28:47.099Z,1.48
2023-04-05T23:33:48.962Z,1.49
2023-04-05T23:38:51.059Z,1.43
2023-04-05T23:43:53.036Z,1.36
2023-04-05T23:48:54.713Z,1.40
2023-04-05T23:53:56.429Z,1.38
2023-04-05T23:58:58.176Z,1.42
